Amston, Connecticut
Current Conditions -  °F | °C
As of 5:52 AM on Friday 21 Nov 2014 (Local Time) from KIJD Reporting Station
Clear Clear  
Wind Chill: 18°   Ceiling: Unl
Heat Index: 25°   Visibility: 10mi
Dew Point: 12°   Wind: 6mph
Humidity: 58%   Direction: 280°W
Pressure: 30.06"   Gusts: NA
Location:  41.63°N, 72.34°W
Report Text: KIJD 211052Z AUTO 28005KT 10SM CLR M04/M11 A3006 RMK AO2 SLP182 T10391111
Loading
Personal Weather Stations






























Interactive Weather Map New forecast layout! Learn more

10-Day Weather Forecast

Advertisements
Track Severe Weather on mobile